createdAt,value
2019-05-30T00:02:12.677Z,1.90
2019-05-30T00:04:43.182Z,1.20
2019-05-30T00:07:13.735Z,0.83
2019-05-30T00:09:44.853Z,1.07
2019-05-30T00:12:15.439Z,1.40
2019-05-30T00:14:46.817Z,1.20
2019-05-30T00:17:17.447Z,0.90
2019-05-30T00:19:48.063Z,1.63
2019-05-30T00:22:18.644Z,1.03
2019-05-30T00:24:49.779Z,0.90
2019-05-30T00:27:20.469Z,1.00
2019-05-30T00:29:51.364Z,0.93
2019-05-30T00:32:22.115Z,1.27
2019-05-30T00:34:52.758Z,1.10
2019-05-30T00:37:23.692Z,1.03
2019-05-30T00:39:55.699Z,0.87
2019-05-30T00:42:26.494Z,1.30
2019-05-30T00:44:57.886Z,1.00
2019-05-30T00:47:28.842Z,1.17
2019-05-30T00:50:00.192Z,1.20
2019-05-30T00:52:30.719Z,1.03
2019-05-30T00:55:02.897Z,1.00
2019-05-30T00:57:34.189Z,1.10
2019-05-30T01:00:06.987Z,1.17
2019-05-30T01:02:38.069Z,1.03
2019-05-30T01:05:10.412Z,1.13
2019-05-30T01:07:41.132Z,1.07
2019-05-30T01:10:12.445Z,0.93
2019-05-30T01:12:42.865Z,1.03
2019-05-30T01:15:13.881Z,1.10
2019-05-30T01:17:44.325Z,1.30
2019-05-30T01:20:15.508Z,0.87
2019-05-30T01:22:45.927Z,1.17
2019-05-30T01:25:17.450Z,1.13
2019-05-30T01:27:47.954Z,0.90
2019-05-30T01:30:20.086Z,1.07
2019-05-30T01:32:50.534Z,1.10
2019-05-30T01:35:21.190Z,1.57
2019-05-30T01:37:51.858Z,1.10
2019-05-30T01:40:22.596Z,1.20
2019-05-30T01:42:53.188Z,0.93
2019-05-30T01:45:23.689Z,1.20
2019-05-30T01:47:54.709Z,1.37
2019-05-30T01:50:25.410Z,2.07
2019-05-30T01:52:55.839Z,1.50
2019-05-30T01:55:26.607Z,1.60
2019-05-30T01:57:57.052Z,1.00
2019-05-30T02:00:38.069Z,1.73
2019-05-30T02:03:09.793Z,1.73
2019-05-30T02:05:40.359Z,1.53
2019-05-30T02:08:14.584Z,1.40
2019-05-30T02:11:07.533Z,1.43
2019-05-30T02:13:38.238Z,1.43
2019-05-30T02:16:09.922Z,1.70
2019-05-30T02:18:41.782Z,1.63
2019-05-30T02:21:12.629Z,1.53
2019-05-30T02:23:43.068Z,1.43
2019-05-30T02:26:13.598Z,1.57
2019-05-30T02:28:44.420Z,2.00
2019-05-30T02:31:15.289Z,1.77
2019-05-30T02:33:45.860Z,1.60
2019-05-30T02:36:16.878Z,1.33
2019-05-30T02:38:47.756Z,1.77
2019-05-30T02:41:18.550Z,1.40
2019-05-30T02:43:49.360Z,1.83
2019-05-30T02:46:19.871Z,1.80
2019-05-30T02:48:58.936Z,1.90
2019-05-30T02:51:23.941Z,2.23
2019-05-30T02:53:54.815Z,2.07
2019-05-30T02:56:26.322Z,1.87
2019-05-30T02:58:56.884Z,1.97
2019-05-30T03:01:27.699Z,2.37
2019-05-30T03:03:58.172Z,2.80
2019-05-30T03:06:28.853Z,2.37
2019-05-30T03:08:59.466Z,2.33
2019-05-30T03:11:30.560Z,2.37
2019-05-30T03:14:04.258Z,2.20
2019-05-30T03:16:35.753Z,2.87
2019-05-30T03:19:08.315Z,2.77
2019-05-30T03:21:39.296Z,2.10
2019-05-30T03:24:12.389Z,2.10
2019-05-30T03:26:42.578Z,2.80
2019-05-30T03:29:15.565Z,2.53
2019-05-30T03:31:48.704Z,2.70
2019-05-30T03:34:27.843Z,2.20
2019-05-30T03:36:51.790Z,2.20
2019-05-30T03:39:22.306Z,2.70
2019-05-30T03:41:53.166Z,2.50
2019-05-30T03:44:23.745Z,2.60
2019-05-30T03:46:57.724Z,2.93
2019-05-30T03:49:31.455Z,2.77
2019-05-30T03:52:08.045Z,2.93
2019-05-30T03:54:39.554Z,2.33
2019-05-30T03:57:25.833Z,2.87
2019-05-30T04:00:02.617Z,2.90
2019-05-30T04:02:59.567Z,2.27
2019-05-30T04:05:35.174Z,2.47
2019-05-30T04:08:09.993Z,2.57
2019-05-30T04:10:43.769Z,2.83
2019-05-30T04:13:23.304Z,2.90
2019-05-30T04:15:57.224Z,2.63
2019-05-30T04:18:27.708Z,2.73
2019-05-30T04:20:58.214Z,2.77
2019-05-30T04:23:28.668Z,2.93
2019-05-30T04:26:00.577Z,2.53
2019-05-30T04:28:31.312Z,2.50
2019-05-30T04:31:02.322Z,2.47
2019-05-30T04:33:33.865Z,2.50
2019-05-30T04:36:04.833Z,2.70
2019-05-30T04:38:35.321Z,2.47
2019-05-30T04:41:06.050Z,2.90
2019-05-30T04:43:36.602Z,2.53
2019-05-30T04:46:07.331Z,2.87
2019-05-30T04:48:37.894Z,2.93
2019-05-30T04:51:10.034Z,2.50
2019-05-30T04:53:41.273Z,2.10
2019-05-30T04:56:14.609Z,2.53
2019-05-30T04:58:45.542Z,2.57
2019-05-30T05:01:18.227Z,2.60
2019-05-30T05:03:49.839Z,2.67
2019-05-30T05:06:21.780Z,2.43
2019-05-30T05:08:52.683Z,2.43
2019-05-30T05:11:25.225Z,2.43
2019-05-30T05:13:55.573Z,2.67
2019-05-30T05:16:35.315Z,2.60
2019-05-30T05:18:58.759Z,2.77
2019-05-30T05:21:35.093Z,2.27
2019-05-30T05:24:06.003Z,1.97
2019-05-30T05:26:36.555Z,2.47
2019-05-30T05:29:07.401Z,2.60
2019-05-30T05:31:37.910Z,2.40
2019-05-30T05:34:08.650Z,2.27
2019-05-30T05:36:39.147Z,2.20
2019-05-30T05:39:09.674Z,2.30
2019-05-30T05:41:40.484Z,2.50
2019-05-30T05:44:11.398Z,2.67
2019-05-30T05:46:41.898Z,2.17
2019-05-30T05:49:13.000Z,2.10
2019-05-30T05:51:44.630Z,3.43
2019-05-30T05:54:15.158Z,2.60
2019-05-30T05:56:45.888Z,2.40
2019-05-30T05:59:16.983Z,2.60
2019-05-30T06:01:47.746Z,1.93
2019-05-30T06:04:19.125Z,3.07
2019-05-30T06:06:49.819Z,2.20
2019-05-30T06:09:20.646Z,2.63
2019-05-30T06:11:51.542Z,2.20
2019-05-30T06:14:22.464Z,4.00
2019-05-30T06:16:55.736Z,2.27
2019-05-30T06:19:25.681Z,2.37
2019-05-30T06:22:08.989Z,2.03
2019-05-30T06:24:39.602Z,2.37
2019-05-30T06:27:10.244Z,2.33
2019-05-30T06:29:44.604Z,2.63
2019-05-30T06:32:15.285Z,2.53
2019-05-30T06:34:46.264Z,2.20
2019-05-30T06:37:17.119Z,2.30
2019-05-30T06:39:47.957Z,2.13
2019-05-30T06:42:19.552Z,2.33
2019-05-30T06:44:50.430Z,2.90
2019-05-30T06:47:22.108Z,2.07
2019-05-30T06:49:53.021Z,1.97
2019-05-30T06:52:24.953Z,2.40
2019-05-30T06:54:55.882Z,2.37
2019-05-30T06:57:27.308Z,2.20
2019-05-30T06:59:58.206Z,2.23
2019-05-30T07:02:28.870Z,2.23
2019-05-30T07:05:01.302Z,2.50
2019-05-30T07:07:33.363Z,2.13
2019-05-30T07:10:07.120Z,2.43
2019-05-30T07:12:38.005Z,1.90
2019-05-30T07:15:09.373Z,2.00
2019-05-30T07:17:40.214Z,2.10
2019-05-30T07:20:11.574Z,2.43
2019-05-30T07:22:42.411Z,2.10
2019-05-30T07:25:13.814Z,1.93
2019-05-30T07:27:44.799Z,2.47
2019-05-30T07:30:16.374Z,2.10
2019-05-30T07:32:47.329Z,2.30
2019-05-30T07:35:18.969Z,2.17
2019-05-30T07:37:49.966Z,2.47
2019-05-30T07:40:20.935Z,2.20
2019-05-30T07:42:52.790Z,2.30
2019-05-30T07:45:24.764Z,1.77
2019-05-30T07:47:55.622Z,1.97
2019-05-30T07:50:26.760Z,1.97
2019-05-30T07:52:58.705Z,1.90
2019-05-30T07:55:30.972Z,1.67
2019-05-30T07:58:01.907Z,1.97
2019-05-30T08:00:33.568Z,1.77
2019-05-30T08:03:04.402Z,2.47
2019-05-30T08:05:35.645Z,2.10
2019-05-30T08:08:06.530Z,2.10
2019-05-30T08:10:38.169Z,1.70
2019-05-30T08:13:09.085Z,1.80
2019-05-30T08:15:43.928Z,1.93
2019-05-30T08:18:12.295Z,1.77
2019-05-30T08:20:42.956Z,2.20
2019-05-30T08:23:13.806Z,1.63
2019-05-30T08:25:44.390Z,1.63
2019-05-30T08:28:15.140Z,2.23
2019-05-30T08:30:46.079Z,1.77
2019-05-30T08:33:16.768Z,2.30
2019-05-30T08:35:49.814Z,2.03
2019-05-30T08:38:20.029Z,1.67
2019-05-30T08:40:50.940Z,2.03
2019-05-30T08:43:21.579Z,2.20
2019-05-30T08:45:52.636Z,1.70
2019-05-30T08:48:23.465Z,1.97
2019-05-30T08:50:54.069Z,2.47
2019-05-30T08:53:25.026Z,1.53
2019-05-30T08:55:55.814Z,1.70
2019-05-30T08:58:26.430Z,1.90
2019-05-30T09:00:57.501Z,2.40
2019-05-30T09:03:28.442Z,1.97
2019-05-30T09:06:03.851Z,2.00
2019-05-30T09:08:32.003Z,1.67
2019-05-30T09:11:03.167Z,2.03
2019-05-30T09:13:34.065Z,1.90
2019-05-30T09:16:04.876Z,1.97
2019-05-30T09:18:36.843Z,1.90
2019-05-30T09:21:08.046Z,1.73
2019-05-30T09:23:40.335Z,1.73
2019-05-30T09:26:11.795Z,1.60
2019-05-30T09:28:42.340Z,2.13
2019-05-30T09:31:13.411Z,2.03
2019-05-30T09:33:44.719Z,1.93
2019-05-30T09:36:16.004Z,1.70
2019-05-30T09:38:47.455Z,1.70
2019-05-30T09:41:18.371Z,1.50
2019-05-30T09:43:50.248Z,1.70
2019-05-30T09:46:21.454Z,1.80
2019-05-30T09:48:52.480Z,1.43
2019-05-30T09:51:23.170Z,2.23
2019-05-30T09:53:53.755Z,1.60
2019-05-30T09:56:24.529Z,1.70
2019-05-30T09:58:55.384Z,1.80
2019-05-30T10:01:26.320Z,1.57
2019-05-30T10:03:57.114Z,1.90
2019-05-30T10:06:29.816Z,1.37
2019-05-30T10:09:00.304Z,1.80
2019-05-30T10:11:31.356Z,1.60
2019-05-30T10:14:03.521Z,2.03
2019-05-30T10:16:34.403Z,1.87
2019-05-30T10:19:05.300Z,1.80
2019-05-30T10:21:36.200Z,2.00
2019-05-30T10:24:07.307Z,2.00
2019-05-30T10:26:39.011Z,1.90
2019-05-30T10:29:10.887Z,1.60
2019-05-30T10:31:45.023Z,1.47
2019-05-30T10:34:16.918Z,1.43
2019-05-30T10:36:49.198Z,1.47
2019-05-30T10:39:20.669Z,1.40
2019-05-30T10:41:51.296Z,1.27
2019-05-30T10:44:22.624Z,1.40
2019-05-30T10:46:54.571Z,1.50
2019-05-30T10:49:34.682Z,1.27
2019-05-30T10:52:02.096Z,1.30
2019-05-30T10:54:33.145Z,1.70
2019-05-30T10:57:03.914Z,1.40
2019-05-30T10:59:34.865Z,1.80
2019-05-30T11:02:06.330Z,2.03
2019-05-30T11:04:38.551Z,1.50
2019-05-30T11:08:00.780Z,1.77
2019-05-30T11:10:39.997Z,1.83
2019-05-30T11:13:13.546Z,2.10
2019-05-30T11:15:44.847Z,2.00
2019-05-30T11:18:18.540Z,1.83
2019-05-30T11:20:49.937Z,1.77
2019-05-30T11:23:21.342Z,1.97
2019-05-30T11:25:52.621Z,1.90
2019-05-30T11:28:24.190Z,2.10
2019-05-30T11:30:56.636Z,2.33
2019-05-30T11:33:27.926Z,2.30
2019-05-30T11:35:59.239Z,2.57
2019-05-30T11:38:30.386Z,1.80
2019-05-30T11:41:01.240Z,2.10
2019-05-30T11:43:33.283Z,2.33
2019-05-30T11:46:03.944Z,2.20
2019-05-30T11:48:34.841Z,2.43
2019-05-30T11:51:05.637Z,2.20
2019-05-30T11:53:36.439Z,2.03
2019-05-30T11:56:07.411Z,1.90
2019-05-30T11:58:38.557Z,2.37
2019-05-30T12:01:09.646Z,2.20
2019-05-30T12:03:40.327Z,2.67
2019-05-30T12:06:11.211Z,2.50
2019-05-30T12:08:42.043Z,2.60
2019-05-30T12:11:12.560Z,3.00
2019-05-30T12:13:43.583Z,2.43
2019-05-30T12:16:14.677Z,3.37
2019-05-30T12:18:46.132Z,2.73
2019-05-30T12:21:19.936Z,3.90
2019-05-30T12:23:51.926Z,3.07
2019-05-30T12:26:22.693Z,2.90
2019-05-30T12:28:54.111Z,2.97
2019-05-30T12:31:25.250Z,2.67
2019-05-30T12:33:56.253Z,3.30
2019-05-30T12:36:27.647Z,3.23
2019-05-30T12:38:58.497Z,3.43
2019-05-30T12:41:31.307Z,3.30
2019-05-30T12:44:03.254Z,3.63
2019-05-30T12:46:34.327Z,2.70
2019-05-30T12:49:04.995Z,3.20
2019-05-30T12:51:36.243Z,3.40
2019-05-30T12:54:07.216Z,3.67
2019-05-30T12:56:41.547Z,3.70
2019-05-30T12:59:12.886Z,3.33
2019-05-30T13:01:43.923Z,4.37
2019-05-30T13:04:14.900Z,4.90
2019-05-30T13:06:46.802Z,5.00
2019-05-30T13:09:17.412Z,5.53
2019-05-30T13:11:48.396Z,4.87
2019-05-30T13:14:19.440Z,5.13
2019-05-30T13:16:50.118Z,4.90
2019-05-30T13:19:20.952Z,5.43
2019-05-30T13:21:53.795Z,4.90
2019-05-30T13:24:24.191Z,5.53
2019-05-30T13:26:55.651Z,4.93
2019-05-30T13:29:26.529Z,4.67
2019-05-30T13:31:58.438Z,6.30
2019-05-30T13:34:29.143Z,7.07
2019-05-30T13:37:00.932Z,6.87
2019-05-30T13:39:32.322Z,7.07
2019-05-30T13:42:03.638Z,6.27
2019-05-30T13:44:34.641Z,7.20
2019-05-30T13:47:06.688Z,7.67
2019-05-30T13:49:39.488Z,7.20
2019-05-30T13:52:10.470Z,7.97
2019-05-30T13:54:41.277Z,7.70
2019-05-30T13:57:12.188Z,8.27
2019-05-30T13:59:42.817Z,9.60
2019-05-30T14:02:13.616Z,11.40
2019-05-30T14:04:44.756Z,11.03
2019-05-30T14:07:15.752Z,10.77
2019-05-30T14:09:47.261Z,11.17
2019-05-30T14:12:18.228Z,11.50
2019-05-30T14:14:49.373Z,10.60
2019-05-30T14:17:20.073Z,11.97
2019-05-30T14:19:51.195Z,12.70
2019-05-30T14:22:22.225Z,12.13
2019-05-30T14:24:57.094Z,12.33
2019-05-30T14:27:27.932Z,12.17
2019-05-30T14:29:58.809Z,12.07
2019-05-30T14:32:29.939Z,10.80
2019-05-30T14:35:02.352Z,9.53
2019-05-30T14:37:33.384Z,7.50
2019-05-30T14:40:05.191Z,10.00
2019-05-30T14:42:36.352Z,13.20
2019-05-30T14:45:08.422Z,12.93
2019-05-30T14:47:39.374Z,12.37
2019-05-30T14:50:13.217Z,14.23
2019-05-30T14:52:44.131Z,11.87
2019-05-30T14:55:15.398Z,12.53
2019-05-30T14:57:46.419Z,12.53
2019-05-30T15:00:18.244Z,12.03
2019-05-30T15:02:48.792Z,11.23
2019-05-30T15:05:20.027Z,10.90
2019-05-30T15:07:51.363Z,9.63
2019-05-30T15:10:22.589Z,10.27
2019-05-30T15:12:53.767Z,9.37
2019-05-30T15:15:24.582Z,9.07
2019-05-30T15:17:55.359Z,9.97
2019-05-30T15:20:26.037Z,9.10
2019-05-30T15:22:56.878Z,8.53
2019-05-30T15:25:27.692Z,8.03
2019-05-30T15:27:58.722Z,9.27
2019-05-30T15:30:29.488Z,11.27
2019-05-30T15:33:00.067Z,9.20
2019-05-30T15:35:31.069Z,11.70
2019-05-30T15:38:02.256Z,10.67
2019-05-30T15:40:32.943Z,12.73
2019-05-30T15:43:04.872Z,13.43
2019-05-30T15:45:35.920Z,14.23
2019-05-30T15:48:08.121Z,13.17
2019-05-30T15:50:40.411Z,14.13
2019-05-30T15:53:11.439Z,14.60
2019-05-30T15:55:42.586Z,14.03
2019-05-30T15:58:15.748Z,14.10
2019-05-30T16:00:48.867Z,13.63
2019-05-30T16:03:20.422Z,13.37
2019-05-30T16:05:51.012Z,14.50
2019-05-30T16:08:21.741Z,14.13
2019-05-30T16:10:52.423Z,13.10
2019-05-30T16:13:23.456Z,15.30
2019-05-30T16:15:56.834Z,15.00
2019-05-30T16:18:27.674Z,15.10
2019-05-30T16:20:58.691Z,16.00
2019-05-30T16:23:29.538Z,16.20
2019-05-30T16:26:00.380Z,15.07
2019-05-30T16:28:31.348Z,14.10
2019-05-30T16:31:02.021Z,14.17
2019-05-30T16:33:32.877Z,13.13
2019-05-30T16:36:04.008Z,12.80
2019-05-30T16:38:34.631Z,14.97
2019-05-30T16:41:05.406Z,13.73
2019-05-30T16:43:36.243Z,14.37
2019-05-30T16:46:07.419Z,14.23
2019-05-30T16:48:38.643Z,15.10
2019-05-30T16:51:09.177Z,13.30
2019-05-30T16:53:40.484Z,12.70
2019-05-30T16:56:11.283Z,14.00
2019-05-30T16:58:42.093Z,15.17
2019-05-30T17:01:12.994Z,15.57
2019-05-30T17:03:44.082Z,15.57
2019-05-30T17:06:15.873Z,14.97
2019-05-30T17:08:46.598Z,13.47
2019-05-30T17:11:17.717Z,12.43
2019-05-30T17:13:48.291Z,14.40
2019-05-30T17:16:20.169Z,14.10
2019-05-30T17:18:51.313Z,14.17
2019-05-30T17:21:22.722Z,13.47
2019-05-30T17:23:53.528Z,13.30
2019-05-30T17:26:25.310Z,14.37
2019-05-30T17:28:57.664Z,13.63
2019-05-30T17:31:28.742Z,12.13
2019-05-30T17:34:00.787Z,12.23
2019-05-30T17:36:31.542Z,12.10
2019-05-30T17:39:02.881Z,13.70
2019-05-30T17:41:34.423Z,11.90
2019-05-30T17:44:06.937Z,12.53
2019-05-30T17:46:37.705Z,12.00
2019-05-30T17:49:11.182Z,11.37
2019-05-30T17:51:42.138Z,13.07
2019-05-30T17:54:13.344Z,14.00
2019-05-30T17:56:44.586Z,12.57
2019-05-30T17:59:15.717Z,12.80
2019-05-30T18:01:48.431Z,14.20
2019-05-30T18:04:20.340Z,12.40
2019-05-30T18:06:52.274Z,13.50
2019-05-30T18:09:24.810Z,12.47
2019-05-30T18:11:55.997Z,12.63
2019-05-30T18:14:27.232Z,13.43
2019-05-30T18:16:58.013Z,13.17
2019-05-30T18:19:29.429Z,13.77
2019-05-30T18:22:00.257Z,13.33
2019-05-30T18:24:31.838Z,14.07
2019-05-30T18:27:02.732Z,13.83
2019-05-30T18:29:33.751Z,13.83
2019-05-30T18:32:04.784Z,13.37
2019-05-30T18:34:35.739Z,13.93
2019-05-30T18:37:06.811Z,12.87
2019-05-30T18:39:37.449Z,12.40
2019-05-30T18:42:08.524Z,11.47
2019-05-30T18:44:39.524Z,12.67
2019-05-30T18:47:10.548Z,12.43
2019-05-30T18:49:41.417Z,13.27
2019-05-30T18:52:12.336Z,12.43
2019-05-30T18:54:43.315Z,12.73
2019-05-30T18:57:14.158Z,12.83
2019-05-30T18:59:45.973Z,13.23
2019-05-30T19:02:18.527Z,13.90
2019-05-30T19:04:50.724Z,13.47
2019-05-30T19:07:21.507Z,14.13
2019-05-30T19:09:52.512Z,13.53
2019-05-30T19:12:24.245Z,13.83
2019-05-30T19:14:55.505Z,12.47
2019-05-30T19:17:27.670Z,12.83
2019-05-30T19:19:58.693Z,11.30
2019-05-30T19:22:30.027Z,10.13
2019-05-30T19:25:00.909Z,9.97
2019-05-30T19:27:33.897Z,10.37
2019-05-30T19:30:03.906Z,10.10
2019-05-30T19:32:35.118Z,10.57
2019-05-30T19:35:06.121Z,10.37
2019-05-30T19:37:37.863Z,10.60
2019-05-30T19:40:09.234Z,11.40
2019-05-30T19:42:40.437Z,10.10
2019-05-30T19:45:12.398Z,10.80
2019-05-30T19:47:42.991Z,9.77
2019-05-30T19:50:14.337Z,10.30
2019-05-30T19:52:46.942Z,10.27
2019-05-30T19:55:21.215Z,10.07
2019-05-30T19:57:50.109Z,10.30
2019-05-30T20:00:21.133Z,11.33
2019-05-30T20:02:52.430Z,10.87
2019-05-30T20:05:26.641Z,11.17
2019-05-30T20:07:57.463Z,11.40
2019-05-30T20:10:28.293Z,12.17
2019-05-30T20:12:59.058Z,12.37
2019-05-30T20:15:31.284Z,11.77
2019-05-30T20:18:01.846Z,12.60
2019-05-30T20:20:49.125Z,11.27
2019-05-30T20:23:05.700Z,12.50
2019-05-30T20:25:40.358Z,12.50
2019-05-30T20:28:08.915Z,13.07
2019-05-30T20:30:39.622Z,12.63
2019-05-30T20:33:10.564Z,13.60
2019-05-30T20:35:42.270Z,12.57
2019-05-30T20:38:14.640Z,12.93
2019-05-30T20:40:45.429Z,13.63
2019-05-30T20:43:16.199Z,13.17
2019-05-30T20:45:49.675Z,13.83
2019-05-30T20:48:19.928Z,13.87
2019-05-30T20:50:50.712Z,14.47
2019-05-30T20:53:21.449Z,14.23
2019-05-30T20:55:52.286Z,13.97
2019-05-30T20:58:22.929Z,14.20
2019-05-30T21:00:53.775Z,13.07
2019-05-30T21:03:25.097Z,13.97
2019-05-30T21:05:58.247Z,13.03
2019-05-30T21:08:29.918Z,14.00
2019-05-30T21:11:03.723Z,14.13
2019-05-30T21:13:36.285Z,13.07
2019-05-30T21:16:08.639Z,13.13
2019-05-30T21:18:39.902Z,13.20
2019-05-30T21:21:11.025Z,13.23
2019-05-30T21:23:42.433Z,13.07
2019-05-30T21:26:13.267Z,12.03
2019-05-30T21:28:45.360Z,12.27
2019-05-30T21:31:16.110Z,12.30
2019-05-30T21:33:48.049Z,11.23
2019-05-30T21:36:18.948Z,13.47
2019-05-30T21:38:51.312Z,11.13
2019-05-30T21:41:22.141Z,10.73
2019-05-30T21:43:52.668Z,11.27
2019-05-30T21:46:23.790Z,10.77
2019-05-30T21:48:54.719Z,11.07
2019-05-30T21:51:25.618Z,11.00
2019-05-30T21:53:56.319Z,10.80
2019-05-30T21:56:27.520Z,11.37
2019-05-30T21:58:58.404Z,11.37
2019-05-30T22:01:33.298Z,10.90
2019-05-30T22:04:03.893Z,10.93
2019-05-30T22:06:34.856Z,10.47
2019-05-30T22:09:08.868Z,10.47
2019-05-30T22:11:39.910Z,11.23
2019-05-30T22:14:10.580Z,10.97
2019-05-30T22:16:41.875Z,10.47
2019-05-30T22:19:12.809Z,10.80
2019-05-30T22:21:44.150Z,10.13
2019-05-30T22:24:15.549Z,11.20
2019-05-30T22:26:46.410Z,9.93
2019-05-30T22:29:17.482Z,9.57
2019-05-30T22:31:48.622Z,10.10
2019-05-30T22:34:19.412Z,10.40
2019-05-30T22:36:50.907Z,9.97
2019-05-30T22:39:21.745Z,10.30
2019-05-30T22:41:52.274Z,9.43
2019-05-30T22:44:22.842Z,9.20
2019-05-30T22:46:53.493Z,9.80
2019-05-30T22:49:23.950Z,9.63
2019-05-30T22:51:54.933Z,9.33
2019-05-30T22:54:25.641Z,9.77
2019-05-30T22:56:56.345Z,9.30
2019-05-30T22:59:27.249Z,10.60
2019-05-30T23:01:58.108Z,9.60
2019-05-30T23:04:28.778Z,9.33
2019-05-30T23:06:59.295Z,9.43
2019-05-30T23:09:29.829Z,9.33
2019-05-30T23:12:00.360Z,8.90
2019-05-30T23:14:30.870Z,8.87
2019-05-30T23:17:01.564Z,8.67
2019-05-30T23:19:32.301Z,8.90
2019-05-30T23:22:02.945Z,8.07
2019-05-30T23:24:33.555Z,8.70
2019-05-30T23:27:08.000Z,9.13
2019-05-30T23:29:36.659Z,7.83
2019-05-30T23:32:08.237Z,8.73
2019-05-30T23:34:39.054Z,9.00
2019-05-30T23:37:09.514Z,8.60
2019-05-30T23:39:40.519Z,8.17
2019-05-30T23:42:11.118Z,8.07
2019-05-30T23:44:41.690Z,7.63
2019-05-30T23:47:12.376Z,8.10
2019-05-30T23:49:43.063Z,8.70
2019-05-30T23:52:13.634Z,8.20
2019-05-30T23:54:44.565Z,8.70
2019-05-30T23:57:15.083Z,8.10
2019-05-30T23:59:45.787Z,8.80
